createdAt,value
2018-07-28T00:01:14.957Z,101029.19
2018-07-28T00:03:43.634Z,101026.68
2018-07-28T00:06:12.336Z,101026.95
2018-07-28T00:08:41.007Z,101020.50
2018-07-28T00:11:09.672Z,101020.77
2018-07-28T00:13:38.669Z,101020.77
2018-07-28T00:16:07.454Z,101015.22
2018-07-28T00:18:36.099Z,101021.58
2018-07-28T00:21:04.806Z,101017.13
2018-07-28T00:23:33.463Z,101019.05
2018-07-28T00:26:07.360Z,101016.26
2018-07-28T00:28:36.027Z,101011.81
2018-07-28T00:31:04.742Z,101009.29
2018-07-28T00:33:33.391Z,101005.38
2018-07-28T00:36:02.069Z,101007.83
2018-07-28T00:38:30.712Z,101006.67
2018-07-28T00:40:59.448Z,101003.86
2018-07-28T00:43:28.116Z,101006.61
2018-07-28T00:45:56.820Z,100993.56
2018-07-28T00:48:25.452Z,100996.34
2018-07-28T00:50:54.248Z,100990.20
2018-07-28T00:53:22.887Z,100989.84
2018-07-28T00:55:51.578Z,100987.07
2018-07-28T00:58:20.231Z,100983.74
2018-07-28T01:00:48.931Z,100979.58
2018-07-28T01:03:17.589Z,100981.78
2018-07-28T01:05:46.256Z,100982.54
2018-07-28T01:08:14.934Z,100970.03
2018-07-28T01:10:43.675Z,100969.16
2018-07-28T01:13:12.328Z,100969.44
2018-07-28T01:15:41.012Z,100964.42
2018-07-28T01:18:09.692Z,100956.63
2018-07-28T01:20:38.386Z,100951.66
2018-07-28T01:23:07.084Z,100953.05
2018-07-28T01:25:35.778Z,100944.70
2018-07-28T01:28:04.434Z,100946.09
2018-07-28T01:30:33.405Z,100936.08
2018-07-28T01:33:02.163Z,100936.30
2018-07-28T01:35:30.876Z,100929.92
2018-07-28T01:37:59.528Z,100926.84
2018-07-28T01:40:28.169Z,100927.92
2018-07-28T01:42:56.851Z,100927.88
2018-07-28T01:45:25.509Z,100923.66
2018-07-28T01:47:54.164Z,100911.98
2018-07-28T01:50:22.809Z,100908.92
2018-07-28T01:52:51.544Z,100906.43
2018-07-28T01:55:20.194Z,100915.55
2018-07-28T01:57:48.878Z,100903.88
2018-07-28T02:00:17.558Z,100901.94
2018-07-28T02:02:46.211Z,100906.77
2018-07-28T02:05:14.882Z,100895.94
2018-07-28T02:07:43.624Z,100897.04
2018-07-28T02:10:12.326Z,100890.91
2018-07-28T02:12:41.037Z,100891.71
2018-07-28T02:15:09.795Z,100894.97
2018-07-28T02:17:38.487Z,100883.64
2018-07-28T02:20:07.927Z,100886.44
2018-07-28T02:22:36.601Z,100886.20
2018-07-28T02:25:07.408Z,100882.84
2018-07-28T02:27:36.183Z,100885.58
2018-07-28T02:30:05.475Z,100881.42
2018-07-28T02:32:34.271Z,100881.73
2018-07-28T02:35:02.964Z,100870.64
2018-07-28T02:37:31.660Z,100867.05
2018-07-28T02:40:00.334Z,100860.64
2018-07-28T02:42:28.999Z,100864.27
2018-07-28T02:44:57.679Z,100859.50
2018-07-28T02:47:26.367Z,100852.02
2018-07-28T02:49:55.039Z,100858.63
2018-07-28T02:52:23.717Z,100856.11
2018-07-28T02:54:52.394Z,100857.50
2018-07-28T02:57:21.085Z,100857.25
2018-07-28T02:59:49.741Z,100856.17
2018-07-28T03:02:18.427Z,100852.60
2018-07-28T03:04:47.082Z,100847.09
2018-07-28T03:07:15.784Z,100854.84
2018-07-28T03:09:44.427Z,100847.64
2018-07-28T03:12:13.124Z,100844.02
2018-07-28T03:14:41.780Z,100844.02
2018-07-28T03:17:10.469Z,100843.45
2018-07-28T03:19:39.232Z,100843.15
2018-07-28T03:22:08.074Z,100850.63
2018-07-28T03:24:36.744Z,100838.90
2018-07-28T03:27:05.936Z,100835.02
2018-07-28T03:29:34.884Z,100824.48
2018-07-28T03:32:03.645Z,100830.55
2018-07-28T03:34:32.291Z,100821.69
2018-07-28T03:37:00.964Z,100818.85
2018-07-28T03:39:29.622Z,100821.00
2018-07-28T03:41:58.294Z,100817.95
2018-07-28T03:44:26.935Z,100811.86
2018-07-28T03:46:55.611Z,100817.99
2018-07-28T03:49:24.371Z,100819.13
2018-07-28T03:51:53.006Z,100822.77
2018-07-28T03:54:21.698Z,100817.28
2018-07-28T03:56:50.359Z,100815.13
2018-07-28T03:59:19.029Z,100817.41
2018-07-28T04:01:47.712Z,100826.30
2018-07-28T04:04:16.408Z,100824.11
2018-07-28T04:06:45.069Z,100826.91
2018-07-28T04:09:13.770Z,100818.90
2018-07-28T04:11:42.442Z,100821.45
2018-07-28T04:14:11.105Z,100809.28
2018-07-28T04:16:39.743Z,100807.36
2018-07-28T04:19:08.439Z,100811.00
2018-07-28T04:21:37.104Z,100808.25
2018-07-28T04:24:05.774Z,100802.42
2018-07-28T04:26:34.437Z,100799.67
2018-07-28T04:29:03.109Z,100800.55
2018-07-28T04:31:31.778Z,100795.36
2018-07-28T04:34:00.483Z,100798.72
2018-07-28T04:36:29.144Z,100794.62
2018-07-28T04:38:57.803Z,100795.75
2018-07-28T04:41:26.482Z,100794.94
2018-07-28T04:43:55.168Z,100793.59
2018-07-28T04:46:23.840Z,100791.67
2018-07-28T04:48:52.546Z,100794.23
2018-07-28T04:51:21.216Z,100790.31
2018-07-28T04:53:49.891Z,100780.61
2018-07-28T04:56:18.527Z,100793.70
2018-07-28T04:58:47.206Z,100788.14
2018-07-28T05:01:15.841Z,100787.05
2018-07-28T05:03:44.511Z,100787.62
2018-07-28T05:06:13.157Z,100784.57
2018-07-28T05:08:41.847Z,100778.47
2018-07-28T05:11:10.543Z,100780.13
2018-07-28T05:13:39.195Z,100784.32
2018-07-28T05:16:07.835Z,100782.92
2018-07-28T05:18:36.496Z,100789.23
2018-07-28T05:21:05.301Z,100780.44
2018-07-28T05:23:33.962Z,100780.76
2018-07-28T05:26:02.622Z,100784.80
2018-07-28T05:28:31.313Z,100779.98
2018-07-28T05:30:59.964Z,100768.11
2018-07-28T05:33:28.627Z,100766.37
2018-07-28T05:35:57.380Z,100771.20
2018-07-28T05:38:26.095Z,100778.83
2018-07-28T05:40:54.724Z,100769.88
2018-07-28T05:43:23.364Z,100768.03
2018-07-28T05:45:52.013Z,100770.16
2018-07-28T05:48:20.663Z,100770.52
2018-07-28T05:50:49.313Z,100765.03
2018-07-28T05:53:17.977Z,100761.36
2018-07-28T05:55:46.631Z,100757.41
2018-07-28T05:58:15.260Z,100751.53
2018-07-28T06:00:43.940Z,100748.31
2018-07-28T06:03:12.593Z,100753.48
2018-07-28T06:05:41.264Z,100749.48
2018-07-28T06:08:09.953Z,100742.56
2018-07-28T06:10:38.679Z,100741.74
2018-07-28T06:13:07.367Z,100738.48
2018-07-28T06:15:36.064Z,100734.52
2018-07-28T06:18:04.772Z,100738.17
2018-07-28T06:20:33.474Z,100746.38
2018-07-28T06:23:02.116Z,100746.34
2018-07-28T06:25:30.791Z,100741.36
2018-07-28T06:27:59.432Z,100735.00
2018-07-28T06:30:28.171Z,100737.16
2018-07-28T06:32:56.819Z,100731.45
2018-07-28T06:35:25.474Z,100735.64
2018-07-28T06:37:54.125Z,100731.86
2018-07-28T06:40:22.829Z,100739.36
2018-07-28T06:42:51.467Z,100730.51
2018-07-28T06:45:20.133Z,100736.47
2018-07-28T06:47:48.776Z,100727.68
2018-07-28T06:50:17.462Z,100730.88
2018-07-28T06:52:46.107Z,100728.36
2018-07-28T06:55:14.780Z,100721.83
2018-07-28T06:57:43.442Z,100727.77
2018-07-28T07:00:12.196Z,100727.25
2018-07-28T07:02:40.861Z,100722.11
2018-07-28T07:05:09.786Z,100724.45
2018-07-28T07:07:38.468Z,100719.34
2018-07-28T07:10:07.572Z,100721.14
2018-07-28T07:12:36.231Z,100717.88
2018-07-28T07:15:05.357Z,100709.73
2018-07-28T07:17:34.038Z,100713.98
2018-07-28T07:20:02.717Z,100715.59
2018-07-28T07:22:31.610Z,100713.27
2018-07-28T07:25:00.279Z,100705.77
2018-07-28T07:27:28.940Z,100700.16
2018-07-28T07:29:57.621Z,100706.47
2018-07-28T07:32:30.300Z,100700.44
2018-07-28T07:34:59.062Z,100694.74
2018-07-28T07:37:27.704Z,100694.09
2018-07-28T07:39:56.370Z,100690.69
2018-07-28T07:42:25.016Z,100683.77
2018-07-28T07:44:53.756Z,100690.20
2018-07-28T07:47:22.477Z,100688.55
2018-07-28T07:49:51.113Z,100684.41
2018-07-28T07:52:19.638Z,100680.16
2018-07-28T07:54:48.171Z,100680.30
2018-07-28T07:57:16.664Z,100684.41
2018-07-28T07:59:45.223Z,100683.64
2018-07-28T08:02:13.787Z,100689.62
2018-07-28T08:04:42.374Z,100682.22
2018-07-28T08:07:10.922Z,100676.65
2018-07-28T08:09:39.446Z,100687.55
2018-07-28T08:12:08.158Z,100678.38
2018-07-28T08:14:36.700Z,100678.85
2018-07-28T08:17:05.494Z,100677.05
2018-07-28T08:19:34.032Z,100671.42
2018-07-28T08:22:02.577Z,100667.02
2018-07-28T08:24:31.085Z,100668.55
2018-07-28T08:29:18.014Z,100656.23
2018-07-28T08:31:46.559Z,100658.38
2018-07-28T08:34:15.076Z,100651.07
2018-07-28T08:36:43.634Z,100645.83
2018-07-28T08:39:14.744Z,100648.56
2018-07-28T08:41:44.190Z,100644.48
2018-07-28T08:44:13.316Z,100643.16
2018-07-28T08:46:41.857Z,100646.95
2018-07-28T08:49:10.390Z,100641.42
2018-07-28T08:51:38.985Z,100644.39
2018-07-28T08:54:07.584Z,100644.92
2018-07-28T08:56:36.132Z,100646.41
2018-07-28T08:59:04.687Z,100640.44
2018-07-28T09:01:33.215Z,100640.25
2018-07-28T09:04:01.744Z,100635.67
2018-07-28T09:06:30.294Z,100639.75
2018-07-28T09:08:58.825Z,100637.27
2018-07-28T09:11:27.376Z,100625.45
2018-07-28T09:13:55.886Z,100625.55
2018-07-28T09:16:24.495Z,100625.36
2018-07-28T09:18:53.092Z,100622.77
2018-07-28T09:21:21.653Z,100611.27
2018-07-28T09:23:50.186Z,100615.84
2018-07-28T09:26:18.731Z,100605.02
2018-07-28T09:28:47.250Z,100609.75
2018-07-28T09:31:15.796Z,100601.88
2018-07-28T09:33:44.316Z,100599.53
2018-07-28T09:36:12.884Z,100604.95
2018-07-28T09:38:41.424Z,100610.47
2018-07-28T09:41:09.998Z,100609.56
2018-07-28T09:43:38.551Z,100604.16
2018-07-28T09:46:07.224Z,100601.67
2018-07-28T09:48:35.759Z,100609.00
2018-07-28T09:51:04.332Z,100607.97
2018-07-28T09:53:32.872Z,100619.74
2018-07-28T09:56:01.425Z,100614.09
2018-07-28T09:58:29.955Z,100608.11
2018-07-28T10:00:59.440Z,100602.80
2018-07-28T10:03:28.719Z,100605.64
2018-07-28T10:05:57.719Z,100594.88
2018-07-28T10:08:26.273Z,100588.97
2018-07-28T10:10:54.804Z,100584.56
2018-07-28T10:13:23.358Z,100576.41
2018-07-28T10:15:51.901Z,100565.97
2018-07-28T10:18:20.468Z,100573.70
2018-07-28T10:20:48.982Z,100569.67
2018-07-28T10:23:17.541Z,100564.39
2018-07-28T10:25:46.057Z,100562.59
2018-07-28T10:28:14.602Z,100558.27
2018-07-28T10:30:43.207Z,100556.84
2018-07-28T10:33:11.736Z,100557.00
2018-07-28T10:35:40.259Z,100567.33
2018-07-28T10:38:08.817Z,100559.98
2018-07-28T10:40:37.345Z,100559.77
2018-07-28T10:43:06.087Z,100544.84
2018-07-28T10:45:34.659Z,100550.86
2018-07-28T10:48:03.179Z,100541.45
2018-07-28T10:50:31.721Z,100548.48
2018-07-28T10:53:00.235Z,100550.73
2018-07-28T10:55:28.793Z,100543.08
2018-07-28T10:57:57.360Z,100535.56
2018-07-28T11:00:25.904Z,100532.69
2018-07-28T11:02:54.454Z,100528.52
2018-07-28T11:05:22.979Z,100538.52
2018-07-28T11:07:51.537Z,100534.19
2018-07-28T11:10:20.057Z,100536.03
2018-07-28T11:12:48.622Z,100541.41
2018-07-28T11:15:17.163Z,100542.59
2018-07-28T11:17:45.750Z,100531.77
2018-07-28T11:20:14.268Z,100522.91
2018-07-28T11:22:42.954Z,100528.02
2018-07-28T11:25:11.376Z,100520.23
2018-07-28T11:27:40.039Z,100515.37
2018-07-28T11:30:09.016Z,100514.10
2018-07-28T11:32:48.792Z,100507.95
2018-07-28T11:35:28.537Z,100515.80
2018-07-28T11:38:19.132Z,100510.02
2018-07-28T11:42:55.047Z,100490.84
2018-07-28T11:45:23.618Z,100491.52
2018-07-28T11:47:52.180Z,100489.69
2018-07-28T11:50:20.687Z,100484.17
2018-07-28T11:52:49.212Z,100476.53
2018-07-28T11:55:17.731Z,100473.02
2018-07-28T11:57:46.276Z,100480.75
2018-07-28T12:00:14.810Z,100480.52
2018-07-28T12:02:43.352Z,100476.27
2018-07-28T12:05:11.859Z,100473.20
2018-07-28T12:07:40.438Z,100459.31
2018-07-28T12:10:09.537Z,100458.67
2018-07-28T12:12:38.328Z,100455.74
2018-07-28T12:15:07.490Z,100464.45
2018-07-28T12:17:36.016Z,100468.01
2018-07-28T12:20:04.815Z,100464.80
2018-07-28T12:22:33.345Z,100464.52
2018-07-28T12:25:01.871Z,100454.59
2018-07-28T12:27:30.394Z,100452.78
2018-07-28T12:29:58.931Z,100456.81
2018-07-28T12:32:27.456Z,100450.13
2018-07-28T12:34:56.032Z,100437.27
2018-07-28T12:37:24.539Z,100444.88
2018-07-28T12:39:53.073Z,100436.39
2018-07-28T12:42:21.611Z,100441.83
2018-07-28T12:44:50.145Z,100438.12
2018-07-28T12:47:18.701Z,100439.16
2018-07-28T12:49:47.232Z,100445.07
2018-07-28T12:52:15.785Z,100443.08
2018-07-28T12:54:44.303Z,100435.35
2018-07-28T12:57:12.835Z,100431.05
2018-07-28T12:59:41.388Z,100425.62
2018-07-28T13:02:09.912Z,100425.58
2018-07-28T13:04:38.460Z,100415.65
2018-07-28T13:07:07.086Z,100413.84
2018-07-28T13:09:35.649Z,100411.30
2018-07-28T13:12:04.161Z,100402.59
2018-07-28T13:14:32.711Z,100417.91
2018-07-28T13:17:01.315Z,100406.16
2018-07-28T13:19:29.859Z,100404.73
2018-07-28T13:21:58.411Z,100405.18
2018-07-28T13:24:26.955Z,100404.85
2018-07-28T13:26:55.465Z,100402.58
2018-07-28T13:29:23.993Z,100407.28
2018-07-28T13:31:52.517Z,100401.14
2018-07-28T13:34:21.050Z,100403.02
2018-07-28T13:36:49.556Z,100393.63
2018-07-28T13:39:18.101Z,100398.66
2018-07-28T13:41:46.623Z,100398.05
2018-07-28T13:44:15.181Z,100388.63
2018-07-28T13:46:43.707Z,100390.45
2018-07-28T13:49:12.257Z,100383.72
2018-07-28T13:51:40.809Z,100393.59
2018-07-28T13:54:09.368Z,100389.02
2018-07-28T13:56:37.976Z,100397.16
2018-07-28T13:59:06.584Z,100390.45
2018-07-28T14:01:35.179Z,100400.33
2018-07-28T14:04:04.040Z,100391.80
2018-07-28T14:06:32.583Z,100379.35
2018-07-28T14:09:01.140Z,100383.27
2018-07-28T14:11:29.679Z,100385.05
2018-07-28T14:13:58.218Z,100384.72
2018-07-28T14:16:26.748Z,100393.48
2018-07-28T14:18:55.381Z,100393.48
2018-07-28T14:21:23.884Z,100384.61
2018-07-28T14:23:52.430Z,100392.26
2018-07-28T14:26:20.976Z,100381.04
2018-07-28T14:28:49.492Z,100380.63
2018-07-28T14:31:18.018Z,100381.36
2018-07-28T14:33:46.526Z,100394.87
2018-07-28T14:36:15.076Z,100412.45
2018-07-28T14:38:43.606Z,100448.59
2018-07-28T14:41:12.167Z,100479.74
2018-07-28T14:43:40.707Z,100505.30
2018-07-28T14:46:09.298Z,100497.00
2018-07-28T14:48:37.910Z,100493.95
2018-07-28T14:51:06.825Z,100529.89
2018-07-28T14:53:35.439Z,100569.81
2018-07-28T14:56:04.117Z,100604.36
2018-07-28T14:58:32.709Z,100652.79
2018-07-28T15:01:01.332Z,100675.34
2018-07-28T15:03:29.865Z,100669.17
2018-07-28T15:05:58.411Z,100658.71
2018-07-28T15:08:26.955Z,100643.19
2018-07-28T15:10:56.001Z,100640.63
2018-07-28T15:13:24.603Z,100648.91
2018-07-28T15:15:53.154Z,100642.81
2018-07-28T15:18:21.698Z,100645.03
2018-07-28T15:20:50.284Z,100642.83
2018-07-28T15:23:18.889Z,100653.95
2018-07-28T15:25:47.460Z,100673.94
2018-07-28T15:28:16.013Z,100699.75
2018-07-28T15:30:44.572Z,100723.63
2018-07-28T15:33:13.121Z,100744.72
2018-07-28T15:35:41.679Z,100744.45
2018-07-28T15:38:10.210Z,100731.09
2018-07-28T15:40:38.900Z,100728.32
2018-07-28T15:43:07.465Z,100713.91
2018-07-28T15:45:36.199Z,100704.77
2018-07-28T15:48:04.846Z,100684.48
2018-07-28T15:50:33.378Z,100675.06
2018-07-28T15:53:01.944Z,100670.08
2018-07-28T15:55:30.505Z,100670.91
2018-07-28T15:57:59.095Z,100663.70
2018-07-28T16:00:27.710Z,100653.97
2018-07-28T16:02:56.270Z,100651.47
2018-07-28T16:05:24.815Z,100661.46
2018-07-28T16:07:53.385Z,100651.51
2018-07-28T16:10:21.928Z,100644.31
2018-07-28T16:12:50.498Z,100624.87
2018-07-28T16:15:19.047Z,100613.48
2018-07-28T16:17:47.665Z,100615.98
2018-07-28T16:20:16.282Z,100611.53
2018-07-28T16:22:44.781Z,100609.57
2018-07-28T16:25:13.314Z,100628.47
2018-07-28T16:27:41.907Z,100615.67
2018-07-28T16:30:10.695Z,100598.43
2018-07-28T16:32:39.328Z,100592.87
2018-07-28T16:35:08.147Z,100571.19
2018-07-28T16:37:36.908Z,100554.22
2018-07-28T16:40:05.749Z,100579.23
2018-07-28T16:42:34.353Z,100585.86
2018-07-28T16:45:02.884Z,100602.27
2018-07-28T16:47:31.441Z,100621.72
2018-07-28T16:49:59.970Z,100647.00
2018-07-28T16:52:28.510Z,100637.84
2018-07-28T16:54:57.034Z,100636.42
2018-07-28T16:57:25.670Z,100620.87
2018-07-28T16:59:54.211Z,100616.14
2018-07-28T17:02:22.837Z,100625.05
2018-07-28T17:04:51.482Z,100623.09
2018-07-28T17:07:20.027Z,100620.28
2018-07-28T17:09:48.563Z,100620.77
2018-07-28T17:12:17.127Z,100616.59
2018-07-28T17:14:45.657Z,100617.98
2018-07-28T17:17:14.201Z,100615.17
2018-07-28T17:19:42.728Z,100622.08
2018-07-28T17:22:11.286Z,100626.77
2018-07-28T17:24:39.799Z,100625.95
2018-07-28T17:27:08.340Z,100632.12
2018-07-28T17:29:36.863Z,100640.23
2018-07-28T17:32:05.441Z,100646.92
2018-07-28T17:34:33.968Z,100645.00
2018-07-28T17:37:02.564Z,100648.61
2018-07-28T17:39:31.105Z,100668.64
2018-07-28T17:41:59.670Z,100669.47
2018-07-28T17:44:28.179Z,100684.23
2018-07-28T17:46:56.742Z,100682.28
2018-07-28T17:49:25.276Z,100685.34
2018-07-28T17:51:53.832Z,100685.34
2018-07-28T17:54:22.355Z,100690.92
2018-07-28T17:56:50.922Z,100700.12
2018-07-28T17:59:19.451Z,100697.34
2018-07-28T18:01:48.016Z,100704.82
2018-07-28T18:04:16.604Z,100716.77
2018-07-28T18:06:45.189Z,100720.11
2018-07-28T18:09:13.758Z,100719.28
2018-07-28T18:11:42.307Z,100721.78
2018-07-28T18:14:10.854Z,100718.75
2018-07-28T18:16:39.379Z,100711.78
2018-07-28T18:19:07.920Z,100724.30
2018-07-28T18:21:36.475Z,100718.18
2018-07-28T18:24:05.039Z,100725.95
2018-07-28T18:26:33.594Z,100733.15
2018-07-28T18:29:02.159Z,100730.66
2018-07-28T18:31:30.696Z,100735.95
2018-07-28T18:33:59.249Z,100744.81
2018-07-28T18:36:27.809Z,100748.14
2018-07-28T18:38:56.385Z,100747.86
2018-07-28T18:41:24.941Z,100757.86
2018-07-28T18:43:53.496Z,100773.69
2018-07-28T18:46:22.038Z,100778.94
2018-07-28T18:48:50.634Z,100776.72
2018-07-28T18:51:19.178Z,100783.39
2018-07-28T18:53:47.748Z,100783.95
2018-07-28T18:56:16.337Z,100789.79
2018-07-28T18:58:44.887Z,100799.22
2018-07-28T19:01:13.419Z,100808.65
2018-07-28T19:03:41.972Z,100817.00
2018-07-28T19:06:10.507Z,100832.27
2018-07-28T19:08:39.106Z,100831.69
2018-07-28T19:11:08.078Z,100841.67
2018-07-28T19:16:09.444Z,100860.26
2018-07-28T19:19:42.898Z,100872.98
2018-07-28T19:22:16.542Z,100881.02
2018-07-28T19:24:45.109Z,100888.22
2018-07-28T19:27:13.645Z,100893.22
2018-07-28T19:29:43.685Z,100888.50
2018-07-28T19:32:12.405Z,100894.31
2018-07-28T19:34:41.352Z,100893.17
2018-07-28T19:37:15.071Z,100905.36
2018-07-28T19:39:43.638Z,100910.64
2018-07-28T19:42:17.352Z,100916.16
2018-07-28T19:44:45.903Z,100919.77
2018-07-28T19:47:14.466Z,100921.67
2018-07-28T19:49:43.027Z,100918.34
2018-07-28T19:52:11.548Z,100913.30
2018-07-28T19:54:40.101Z,100918.27
2018-07-28T19:57:08.636Z,100922.09
2018-07-28T19:59:37.180Z,100934.53
2018-07-28T20:02:05.745Z,100927.81
2018-07-28T20:04:34.300Z,100909.76
2018-07-28T20:07:02.881Z,100918.08
2018-07-28T20:09:31.462Z,100916.94
2018-07-28T20:12:00.011Z,100923.04
2018-07-28T20:14:28.585Z,100930.80
2018-07-28T20:16:57.165Z,100918.85
2018-07-28T20:19:25.746Z,100910.78
2018-07-28T20:21:54.306Z,100913.80
2018-07-28T20:24:22.864Z,100926.27
2018-07-28T20:26:51.412Z,100926.83
2018-07-28T20:29:19.966Z,100921.56
2018-07-28T20:31:48.531Z,100900.49
2018-07-28T20:34:17.145Z,100894.39
2018-07-28T20:36:45.691Z,100907.64
2018-07-28T20:39:14.318Z,100905.97
2018-07-28T20:41:42.872Z,100901.78
2018-07-28T20:44:11.439Z,100911.77
2018-07-28T20:46:40.025Z,100921.77
2018-07-28T20:49:08.598Z,100923.68
2018-07-28T20:51:37.159Z,100930.61
2018-07-28T20:54:05.722Z,100954.73
2018-07-28T20:56:34.291Z,100961.90
2018-07-28T20:59:02.845Z,100971.02
2018-07-28T21:01:31.365Z,100975.61
2018-07-28T21:03:59.933Z,100987.17
2018-07-28T21:06:28.474Z,100992.39
2018-07-28T21:08:57.017Z,100995.91
2018-07-28T21:11:25.696Z,101003.63
2018-07-28T21:13:54.360Z,101025.28
2018-07-28T21:16:23.052Z,101043.29
2018-07-28T21:18:51.737Z,101052.75
2018-07-28T21:21:20.417Z,101050.81
2018-07-28T21:23:49.072Z,101056.40
2018-07-28T21:26:17.778Z,101070.30
2018-07-28T21:28:46.442Z,101079.17
2018-07-28T21:31:15.132Z,101081.98
2018-07-28T21:33:43.878Z,101081.98
2018-07-28T21:36:12.519Z,101088.36
2018-07-28T21:38:41.206Z,101091.69
2018-07-28T21:41:09.973Z,101094.45
2018-07-28T21:43:38.717Z,101101.66
2018-07-28T21:46:07.466Z,101096.44
2018-07-28T21:48:36.133Z,101103.69
2018-07-28T21:51:04.832Z,101103.96
2018-07-28T21:53:33.491Z,101107.84
2018-07-28T21:56:02.176Z,101102.90
2018-07-28T21:58:30.831Z,101105.67
2018-07-28T22:01:16.023Z,101107.09
2018-07-28T22:03:44.695Z,101111.81
2018-07-28T22:06:13.400Z,101118.20
2018-07-28T22:08:42.208Z,101110.98
2018-07-28T22:11:10.925Z,101107.66
2018-07-28T22:13:39.590Z,101106.03
2018-07-28T22:16:08.419Z,101114.08
2018-07-28T22:18:37.098Z,101118.52
2018-07-28T22:21:05.826Z,101129.89
2018-07-28T22:23:34.493Z,101127.42
2018-07-28T22:26:03.236Z,101127.70
2018-07-28T22:28:31.909Z,101116.58
2018-07-28T22:31:00.612Z,101108.80
2018-07-28T22:33:29.274Z,101120.41
2018-07-28T22:35:57.984Z,101143.97
2018-07-28T22:38:26.668Z,101151.69
2018-07-28T22:40:55.362Z,101154.17
2018-07-28T22:43:24.034Z,101155.56
2018-07-28T22:45:52.719Z,101150.85
2018-07-28T22:48:21.387Z,101151.69
2018-07-28T22:50:50.141Z,101145.91
2018-07-28T22:53:18.819Z,101132.28
2018-07-28T22:55:47.525Z,101139.81
2018-07-28T22:58:16.203Z,101158.11
2018-07-28T23:00:44.908Z,101158.11
2018-07-28T23:03:13.658Z,101163.65
2018-07-28T23:05:42.355Z,101164.77
2018-07-28T23:08:11.088Z,101173.34
2018-07-28T23:10:39.795Z,101163.37
2018-07-28T23:13:08.465Z,101161.66
2018-07-28T23:15:37.144Z,101170.84
2018-07-28T23:18:05.869Z,101154.73
2018-07-28T23:20:34.571Z,101158.66
2018-07-28T23:23:03.221Z,101172.25
2018-07-28T23:25:31.948Z,101169.79
2018-07-28T23:28:00.585Z,101159.22
2018-07-28T23:30:29.273Z,101158.11
2018-07-28T23:32:57.966Z,101162.53
2018-07-28T23:35:26.686Z,101164.99
2018-07-28T23:37:55.419Z,101153.34
2018-07-28T23:40:24.121Z,101147.80
2018-07-28T23:42:52.823Z,101145.58
2018-07-28T23:45:21.528Z,101150.26
2018-07-28T23:47:50.221Z,101138.34
2018-07-28T23:50:18.942Z,101148.03
2018-07-28T23:52:47.632Z,101148.91
2018-07-28T23:55:16.322Z,101136.99
2018-07-28T23:57:45.036Z,101143.09
